Time;durP1;ratioP1;P1;durP2;ratioP2;P2;SDS_P1;SDS_P2;PMS_P1;PMS_P2;Temp;Humidity;BMP_temperature;BMP_pressure;BME280_temperature;BME280_humidity;BME280_pressure;Samples;Min_cycle;Max_cycle;Signal;HPM_P1;HPM_P2
2021/09/08 14:51:16;329913.00;1.10;569.34;72860.00;0.24;126.70;;;;;28.20;1.00;;;;;;2579362;55;1408;-88
2021/09/08 14:53:45;285685.00;0.95;493.31;86267.00;0.29;149.86;;;;;28.20;1.00;;;;;;2582626;55;1507;-86
2021/09/08 14:56:13;562591.00;1.88;969.67;99711.00;0.33;173.07;;;;;28.10;1.00;;;;;;2580660;55;1145;-89
2021/09/08 14:58:40;69678.00;0.23;121.20;0.00;0.00;0.62;;;;;28.10;1.00;;;;;;2580709;55;1069;-90
2021/09/08 15:01:08;323435.00;1.08;558.20;0.00;0.00;0.62;;;;;28.50;1.00;;;;;;2582762;55;1747;-91
2021/09/08 15:03:35;51658.00;0.17;90.05;0.00;0.00;0.62;;;;;28.90;1.00;;;;;;2582780;55;1952;-91
2021/09/08 15:06:07;131918.00;0.44;228.64;0.00;0.00;0.62;;;;;28.80;1.00;;;;;;2582736;55;1815;-88
2021/09/08 15:08:35;76611.00;0.26;133.18;0.00;0.00;0.62;;;;;28.40;1.00;;;;;;2580530;55;1105;-92
2021/09/08 15:11:02;279607.00;0.93;482.86;0.00;0.00;0.62;;;;;28.60;1.00;;;;;;2582641;55;1526;-90
2021/09/08 15:13:32;780787.00;2.60;1347.64;154161.00;0.51;266.98;;;;;29.00;1.00;;;;;;2580615;55;1042;-91
2021/09/08 15:15:59;53439.00;0.18;93.13;0.00;0.00;0.62;;;;;28.90;1.00;;;;;;2582864;55;973;-89
2021/09/08 15:18:27;196997.00;0.66;340.75;0.00;0.00;0.62;;;;;28.50;1.00;;;;;;2582851;55;1028;-90
2021/09/08 15:20:53;186706.00;0.62;323.04;16207.00;0.05;28.70;;;;;28.50;1.00;;;;;;2579491;55;1366;-90
2021/09/08 15:23:21;148089.00;0.49;256.51;0.00;0.00;0.62;;;;;28.60;1.00;;;;;;2575843;55;1910;-93
2021/09/08 15:25:49;505156.00;1.68;870.70;0.00;0.00;0.62;;;;;28.70;1.00;;;;;;2578086;55;1527;-90
2021/09/08 15:28:16;15278.00;0.05;27.09;0.00;0.00;0.62;;;;;28.80;1.00;;;;;;2575993;55;1026;-90
2021/09/08 15:30:45;51298.00;0.17;89.43;0.00;0.00;0.62;;;;;28.60;1.00;;;;;;2578265;55;1220;-91
2021/09/08 15:33:13;33683.00;0.11;58.96;0.00;0.00;0.62;;;;;28.80;1.00;;;;;;2575834;55;977;-91
2021/09/08 15:35:41;169594.00;0.57;293.57;0.00;0.00;0.62;;;;;28.80;1.00;;;;;;2575857;55;993;-93
2021/09/08 15:38:10;206600.00;0.69;357.28;0.00;0.00;0.62;;;;;29.00;1.00;;;;;;2575858;55;1117;-91
2021/09/08 15:40:37;17503.00;0.06;30.95;0.00;0.00;0.62;;;;;29.30;1.00;;;;;;2575989;55;1377;-90
2021/09/08 15:43:05;11997.00;0.04;21.41;0.00;0.00;0.62;;;;;29.00;1.00;;;;;;2575995;55;1115;-91
2021/09/08 15:45:35;69223.00;0.23;120.42;0.00;0.00;0.62;;;;;28.60;1.00;;;;;;2575892;55;1954;-91
2021/09/08 15:48:02;103007.00;0.34;178.76;0.00;0.00;0.62;;;;;28.60;1.00;;;;;;2578171;55;999;-90
2021/09/08 15:50:31;92076.00;0.31;159.89;0.00;0.00;0.62;;;;;28.60;1.00;;;;;;2575771;55;1359;-87
2021/09/08 15:52:58;31060.00;0.10;54.42;0.00;0.00;0.62;;;;;28.40;1.00;;;;;;2579663;55;1046;-93
2021/09/08 15:55:25;229061.00;0.76;395.93;0.00;0.00;0.62;;;;;28.30;1.00;;;;;;2588397;55;947;-91
2021/09/08 15:57:52;256857.00;0.86;443.74;19777.00;0.07;34.88;;;;;28.40;1.00;;;;;;2588493;55;970;-91
2021/09/08 16:00:21;101878.00;0.34;176.81;0.00;0.00;0.62;;;;;28.60;1.00;;;;;;2588425;55;1509;-90
2021/09/08 16:02:50;184429.00;0.61;319.12;0.00;0.00;0.62;;;;;28.80;1.00;;;;;;2586331;55;1002;-88
2021/09/08 16:05:17;67558.00;0.23;117.54;0.00;0.00;0.62;;;;;28.50;1.00;;;;;;2586276;55;1904;-89
2021/09/08 16:07:44;103283.00;0.34;179.24;0.00;0.00;0.62;;;;;28.50;1.00;;;;;;2586344;55;1069;-88
2021/09/08 16:10:12;172667.00;0.58;298.86;0.00;0.00;0.62;;;;;28.40;1.00;;;;;;2588488;55;1732;-88
2021/09/08 16:12:40;86888.00;0.29;150.93;0.00;0.00;0.62;;;;;28.00;1.00;;;;;;2588494;55;904;-89
2021/09/08 16:15:08;96500.00;0.32;167.53;0.00;0.00;0.62;;;;;28.00;1.00;;;;;;2588575;55;937;-88
2021/09/08 16:17:36;82726.00;0.28;143.75;0.00;0.00;0.62;;;;;27.80;1.00;;;;;;2588204;55;1525;-87
2021/09/08 16:20:05;58269.00;0.19;101.48;0.00;0.00;0.62;;;;;27.90;1.00;;;;;;2586040;55;1309;-88
2021/09/08 16:22:33;74924.00;0.25;130.27;0.00;0.00;0.62;;;;;28.00;1.00;;;;;;2588241;55;1674;-88
2021/09/08 16:25:00;414802.00;1.38;715.25;4519.00;0.02;8.45;;;;;27.90;1.00;;;;;;2588438;55;1947;-87
2021/09/08 16:27:27;61052.00;0.20;106.30;0.00;0.00;0.62;;;;;28.10;1.00;;;;;;2586261;55;1105;-89
2021/09/08 16:29:54;60632.00;0.20;105.57;0.00;0.00;0.62;;;;;27.90;1.00;;;;;;2586173;55;1354;-88
2021/09/08 16:32:21;31354.00;0.10;54.93;0.00;0.00;0.62;;;;;27.90;1.00;;;;;;2586314;55;1102;-87
2021/09/08 16:34:49;157681.00;0.53;273.04;0.00;0.00;0.62;;;;;27.70;1.00;;;;;;2588390;55;1640;-88
2021/09/08 16:37:16;34519.00;0.12;60.40;0.00;0.00;0.62;;;;;27.80;1.00;;;;;;2586273;55;1082;-89
2021/09/08 16:39:43;412.00;0.00;1.33;0.00;0.00;0.62;;;;;27.90;1.00;;;;;;2586214;55;1290;-89
2021/09/08 16:42:10;40554.00;0.14;70.85;0.00;0.00;0.62;;;;;27.80;1.00;;;;;;2586163;55;1055;-88
2021/09/08 16:44:37;131482.00;0.44;227.88;0.00;0.00;0.62;;;;;27.70;1.00;;;;;;2588304;55;1890;-89
2021/09/08 16:47:07;133747.00;0.45;231.79;0.00;0.00;0.62;;;;;27.90;1.00;;;;;;2586076;55;1014;-88
2021/09/08 16:49:34;51070.00;0.17;89.04;0.00;0.00;0.62;;;;;27.80;1.00;;;;;;2588407;55;1247;-89
2021/09/08 16:52:03;55017.00;0.18;95.86;0.00;0.00;0.62;;;;;27.90;1.00;;;;;;2586090;55;1256;-88
2021/09/08 16:54:30;27304.00;0.09;47.92;0.00;0.00;0.62;;;;;28.10;1.00;;;;;;2588359;55;921;-89
2021/09/08 16:56:57;43859.00;0.15;76.56;0.00;0.00;0.62;;;;;28.00;1.00;;;;;;2588309;55;1079;-89
2021/09/08 16:59:24;17798.00;0.06;31.46;0.00;0.00;0.62;;;;;27.90;1.00;;;;;;2585910;55;1265;-90
2021/09/08 17:01:55;252995.00;0.84;437.10;48988.00;0.16;85.44;;;;;27.80;1.00;;;;;;2588167;55;1690;-89
2021/09/08 17:04:22;93724.00;0.31;162.74;0.00;0.00;0.62;;;;;27.60;1.00;;;;;;2588189;55;1937;-90
2021/09/08 17:06:49;462963.00;1.54;798.08;0.00;0.00;0.62;;;;;27.50;1.00;;;;;;2588337;55;984;-90
2021/09/08 17:09:18;831455.00;2.77;1436.04;72405.00;0.24;125.92;;;;;27.60;1.00;;;;;;2588225;55;1351;-89
2021/09/08 17:11:45;360433.00;1.20;621.79;0.00;0.00;0.62;;;;;27.80;1.00;;;;;;2588277;55;1695;-91
2021/09/08 17:14:11;987703.00;3.29;1710.70;152122.00;0.51;263.46;;;;;27.90;1.00;;;;;;2588346;55;941;-90
2021/09/08 17:16:39;922164.00;3.07;1595.08;83444.00;0.28;144.99;;;;;27.80;1.00;;;;;;2588319;55;1389;-90
2021/09/08 17:19:06;910692.00;3.04;1574.91;48135.00;0.16;83.96;;;;;27.60;1.00;;;;;;2586135;55;1356;-91
2021/09/08 17:21:32;833983.00;2.78;1440.46;97644.00;0.33;169.50;;;;;27.50;1.00;;;;;;2588245;55;1699;-91
2021/09/08 17:23:59;772835.00;2.58;1333.79;62074.00;0.21;108.06;;;;;27.50;1.00;;;;;;2587916;55;1900;-90
2021/09/08 17:26:29;118175008.00;393.92;66851804.00;28836.00;0.10;50.57;;;;;27.80;1.00;;;;;;2588286;55;981;-90
2021/09/08 17:28:59;1948945.00;6.50;3520.01;126076.00;0.42;218.56;;;;;27.80;1.00;;;;;;2586031;55;1064;-90
2021/09/08 17:31:26;1040839.00;3.47;1804.94;135570.00;0.45;234.93;;;;;27.90;1.00;;;;;;2588193;55;1268;-92
2021/09/08 17:33:53;672680.00;2.24;1159.89;24193.00;0.08;42.53;;;;;28.00;1.00;;;;;;2586070;55;997;-90
2021/09/08 17:36:20;637321.00;2.12;1098.71;0.00;0.00;0.62;;;;;27.60;1.00;;;;;;2588297;55;998;-91
2021/09/08 17:38:49;598630.00;2.00;1031.85;0.00;0.00;0.62;;;;;27.60;1.00;;;;;;2586058;55;1133;-92
2021/09/08 17:41:19;759109.00;2.53;1309.90;37259.00;0.12;65.15;;;;;27.70;1.00;;;;;;2588166;55;1601;-91
2021/09/08 17:43:48;1476582.00;4.92;2599.13;121474.00;0.40;210.62;;;;;27.70;1.00;;;;;;2588209;55;1565;-91
2021/09/08 17:46:17;1209362.00;4.03;2107.16;99823.00;0.33;173.27;;;;;27.80;1.00;;;;;;2586646;55;1914;-91
2021/09/08 17:48:44;1135715.00;3.79;1974.41;38556.00;0.13;67.39;;;;;27.80;1.00;;;;;;2588157;55;1670;-93
2021/09/08 17:51:11;863085.00;2.88;1491.38;68058.00;0.23;118.40;;;;;27.70;1.00;;;;;;2586096;55;1342;-90
2021/09/08 17:53:38;1313806.00;4.38;2297.39;138820.00;0.46;240.54;;;;;27.70;1.00;;;;;;2588155;55;1634;-92
2021/09/08 17:56:06;573901.00;1.91;989.18;0.00;0.00;0.62;;;;;27.60;1.00;;;;;;2588224;55;1710;-91
2021/09/08 17:58:33;601574.00;2.01;1036.94;11256.00;0.04;20.13;;;;;27.20;1.00;;;;;;2588185;55;947;-92
2021/09/08 18:01:03;769990.00;2.57;1328.84;0.00;0.00;0.62;;;;;27.10;1.00;;;;;;2588290;55;1253;-93
2021/09/08 18:03:30;743322.00;2.48;1282.45;29561.00;0.10;51.82;;;;;27.20;1.00;;;;;;2588226;55;1477;-92
2021/09/08 18:05:57;714525.00;2.38;1232.44;17229.00;0.06;30.47;;;;;27.20;1.00;;;;;;2588180;55;1906;-92
2021/09/08 18:08:25;755784.00;2.52;1304.12;0.00;0.00;0.62;;;;;27.20;1.00;;;;;;2588286;55;971;-92
2021/09/08 18:10:52;972968.00;3.24;1684.65;108382.00;0.36;188.04;;;;;27.00;1.00;;;;;;2588248;55;1333;-92
2021/09/08 18:13:19;717486.00;2.39;1237.57;19558.00;0.07;34.50;;;;;26.90;1.00;;;;;;2586008;55;1047;-92
2021/09/08 18:15:47;704756.00;2.35;1215.49;46449.00;0.15;81.04;;;;;26.90;1.00;;;;;;2588360;55;1669;-91
2021/09/08 18:18:15;889728.00;2.97;1538.09;27929.00;0.09;49.00;;;;;26.80;1.00;;;;;;2586339;55;1105;-92
2021/09/08 18:20:42;667987.00;2.23;1151.77;67730.00;0.23;117.84;;;;;26.70;1.00;;;;;;2586301;55;1281;-92
2021/09/08 18:23:10;642261.00;2.14;1107.25;4635.00;0.02;8.65;;;;;26.60;1.00;;;;;;2586380;55;1054;-91
2021/09/08 18:25:37;619007.00;2.06;1067.05;36071.00;0.12;63.09;;;;;26.50;1.00;;;;;;2586226;55;1889;-89
2021/09/08 18:28:05;847456.00;2.82;1464.02;30228.00;0.10;52.98;;;;;26.40;1.00;;;;;;2588472;55;1894;-90
2021/09/08 18:30:32;829911.00;2.77;1433.34;9885.00;0.03;17.75;;;;;26.30;1.00;;;;;;2588518;55;1567;-89
2021/09/08 18:32:59;881486.00;2.94;1523.63;68444.00;0.23;119.07;;;;;26.10;1.00;;;;;;2588547;55;1680;-89
2021/09/08 18:35:27;1086703.00;3.62;1886.66;19226.00;0.06;33.93;;;;;26.10;1.00;;;;;;2586413;55;1143;-90
2021/09/08 18:37:54;628520.00;2.10;1083.49;16840.00;0.06;29.80;;;;;26.00;1.00;;;;;;2588550;55;1011;-90
2021/09/08 18:40:23;810572.00;2.70;1399.57;64466.00;0.21;112.20;;;;;25.90;1.00;;;;;;2588501;55;1354;-90
2021/09/08 18:42:52;746385.00;2.49;1287.77;35732.00;0.12;62.50;;;;;25.70;1.00;;;;;;2586452;55;1058;-89
2021/09/08 18:45:20;691096.00;2.30;1191.80;24741.00;0.08;43.48;;;;;25.70;1.00;;;;;;2588567;55;1902;-90
2021/09/08 18:47:48;1056639.00;3.52;1833.05;231069.00;0.77;399.39;;;;;25.80;1.00;;;;;;2588450;55;1560;-90
2021/09/08 18:50:17;734926.00;2.45;1267.86;86782.00;0.29;150.75;;;;;25.70;1.00;;;;;;2588493;55;1346;-90
2021/09/08 18:52:45;441818.00;1.47;761.71;81242.00;0.27;141.18;;;;;25.70;1.00;;;;;;2588549;55;990;-91
2021/09/08 18:55:13;238521.00;0.80;412.21;71758.00;0.24;124.80;;;;;25.60;1.00;;;;;;2588490;55;1584;-90
2021/09/08 18:57:43;329001.00;1.10;567.77;66954.00;0.22;116.50;;;;;25.50;1.00;;;;;;2588488;55;1505;-90
2021/09/08 19:00:12;208872.00;0.70;361.19;79495.00;0.26;138.16;;;;;25.40;1.00;;;;;;2588459;55;1389;-90
2021/09/08 19:02:39;312659.00;1.04;539.68;71238.00;0.24;123.90;;;;;25.30;1.00;;;;;;2586286;55;1082;-90
2021/09/08 19:05:09;267203.00;0.89;461.53;81305.00;0.27;141.29;;;;;25.30;1.00;;;;;;2588572;55;1902;-91
2021/09/08 19:07:36;396469.00;1.32;683.74;89831.00;0.30;156.02;;;;;25.30;1.00;;;;;;2588500;55;1736;-91
2021/09/08 19:10:05;332628.00;1.11;574.00;52675.00;0.18;91.81;;;;;25.20;1.00;;;;;;2588357;55;1577;-90
2021/09/08 19:12:32;208141.00;0.69;359.94;0.00;0.00;0.62;;;;;25.10;1.00;;;;;;2588608;55;953;-91
2021/09/08 19:14:59;121088.00;0.40;209.96;0.00;0.00;0.62;;;;;25.10;1.00;;;;;;2588564;55;989;-89
2021/09/08 19:17:26;265016.00;0.88;457.77;0.00;0.00;0.62;;;;;24.90;1.00;;;;;;2588477;55;1533;-90
2021/09/08 19:19:53;16010.00;0.05;28.36;0.00;0.00;0.62;;;;;24.90;1.00;;;;;;2586361;55;1277;-91
2021/09/08 19:22:20;114239.00;0.38;198.14;0.00;0.00;0.62;;;;;24.80;1.00;;;;;;2586326;55;999;-91
2021/09/08 19:24:47;293083.00;0.98;506.03;43124.00;0.14;75.29;;;;;24.90;1.00;;;;;;2586446;55;1972;-89
2021/09/08 19:27:15;317118.00;1.06;547.34;0.00;0.00;0.62;;;;;25.00;1.00;;;;;;2586222;55;1093;-91
2021/09/08 19:29:43;210598.00;0.70;364.16;0.00;0.00;0.62;;;;;24.80;1.00;;;;;;2588500;55;1523;-89
2021/09/08 19:32:10;100391.00;0.33;174.25;0.00;0.00;0.62;;;;;24.50;1.00;;;;;;2586425;55;1066;-91
2021/09/08 19:34:37;232124.00;0.77;401.20;0.00;0.00;0.62;;;;;24.60;1.00;;;;;;2588542;55;1649;-89
2021/09/08 19:37:04;255011.00;0.85;440.57;0.00;0.00;0.62;;;;;24.60;1.00;;;;;;2586290;55;1121;-91
2021/09/08 19:39:31;203118.00;0.68;351.29;0.00;0.00;0.62;;;;;24.50;1.00;;;;;;2588536;55;1227;-90
2021/09/08 19:41:59;94106.00;0.31;163.40;0.00;0.00;0.62;;;;;24.50;1.00;;;;;;2586382;55;1126;-89
2021/09/08 19:44:30;155256.00;0.52;268.87;0.00;0.00;0.62;;;;;24.40;1.00;;;;;;2588578;55;994;-91
2021/09/08 19:46:57;278531.00;0.93;481.01;0.00;0.00;0.62;;;;;24.40;1.00;;;;;;2588564;55;1956;-90
2021/09/08 19:49:24;67229.00;0.22;116.97;0.00;0.00;0.62;;;;;24.50;1.00;;;;;;2585553;55;1343;-90
2021/09/08 19:51:53;96648.00;0.32;167.79;0.00;0.00;0.62;;;;;24.50;1.00;;;;;;2586394;55;1102;-90
2021/09/08 19:54:20;192363.00;0.64;332.78;0.00;0.00;0.62;;;;;24.60;1.00;;;;;;2588521;55;1524;-90
2021/09/08 19:56:47;276427.00;0.92;477.39;0.00;0.00;0.62;;;;;24.40;1.00;;;;;;2588623;55;1000;-91
2021/09/08 19:59:14;408191.00;1.36;703.89;0.00;0.00;0.62;;;;;24.30;1.00;;;;;;2588559;55;1311;-90
2021/09/08 20:01:42;448790.00;1.50;773.70;0.00;0.00;0.62;;;;;24.30;1.00;;;;;;2588710;55;1023;-90
2021/09/08 20:04:09;144903.00;0.48;251.02;0.00;0.00;0.62;;;;;24.30;1.00;;;;;;2588578;55;1639;-90
2021/09/08 20:06:36;219983.00;0.73;380.31;0.00;0.00;0.62;;;;;24.20;1.00;;;;;;2586411;55;1941;-90
2021/09/08 20:09:03;198547.00;0.66;343.42;0.00;0.00;0.62;;;;;24.10;1.00;;;;;;2588450;55;1640;-90
2021/09/08 20:11:30;232728.00;0.78;402.24;0.00;0.00;0.62;;;;;24.10;1.00;;;;;;2588656;55;904;-89
2021/09/08 20:13:57;245499.00;0.82;424.21;0.00;0.00;0.62;;;;;24.10;1.00;;;;;;2588550;55;924;-90
2021/09/08 20:16:24;148148.00;0.49;256.62;0.00;0.00;0.62;;;;;24.10;1.00;;;;;;2588591;55;974;-90
2021/09/08 20:18:53;144773.00;0.48;250.80;0.00;0.00;0.62;;;;;24.10;1.00;;;;;;2588575;55;1008;-90
2021/09/08 20:21:20;339662.00;1.13;586.09;0.00;0.00;0.62;;;;;23.90;1.00;;;;;;2588487;55;1528;-90
2021/09/08 20:23:47;140277.00;0.47;243.05;0.00;0.00;0.62;;;;;23.90;1.00;;;;;;2588674;55;977;-91
2021/09/08 20:26:14;371068.00;1.24;640.07;26619.00;0.09;46.73;;;;;23.90;1.00;;;;;;2588600;55;1940;-90
2021/09/08 20:28:41;171508.00;0.57;296.86;26392.00;0.09;46.34;;;;;23.90;1.00;;;;;;2588563;55;1031;-91
2021/09/08 20:31:08;185834.00;0.62;321.54;0.00;0.00;0.62;;;;;23.80;1.00;;;;;;2588567;55;1327;-91
2021/09/08 20:33:35;163655.00;0.55;283.34;0.00;0.00;0.62;;;;;23.80;1.00;;;;;;2586394;55;1101;-91
2021/09/08 20:36:04;167473.00;0.56;289.91;0.00;0.00;0.62;;;;;23.80;1.00;;;;;;2588510;55;1578;-91
2021/09/08 20:38:31;184558.00;0.62;319.34;0.00;0.00;0.62;;;;;23.80;1.00;;;;;;2588522;55;1566;-89
2021/09/08 20:40:58;369464.00;1.23;637.32;5818.00;0.02;10.70;;;;;23.70;1.00;;;;;;2588543;55;1333;-91
2021/09/08 20:43:25;239521.00;0.80;413.93;0.00;0.00;0.62;;;;;23.80;1.00;;;;;;2588576;55;1690;-90
2021/09/08 20:45:52;74694.00;0.25;129.87;0.00;0.00;0.62;;;;;23.60;1.00;;;;;;2586321;55;1898;-90
2021/09/08 20:48:20;409380.00;1.36;705.93;41526.00;0.14;72.53;;;;;23.50;1.00;;;;;;2588562;55;926;-90
2021/09/08 20:50:48;72655.00;0.24;126.35;0.00;0.00;0.62;;;;;23.40;1.00;;;;;;2586335;55;1335;-90
2021/09/08 20:53:19;22261.00;0.07;39.19;0.00;0.00;0.62;;;;;23.30;1.00;;;;;;2588414;55;1575;-91
2021/09/08 20:55:46;79511.00;0.27;138.19;0.00;0.00;0.62;;;;;23.30;1.00;;;;;;2588548;55;1108;-90
2021/09/08 20:58:13;275391.00;0.92;475.61;12885.00;0.04;22.95;;;;;23.10;1.00;;;;;;2588486;55;1720;-91
2021/09/08 21:00:41;444825.00;1.48;766.88;62428.00;0.21;108.67;;;;;23.10;1.00;;;;;;2586302;55;1362;-91
2021/09/08 21:03:08;177539.00;0.59;307.25;0.00;0.00;0.62;;;;;23.10;1.00;;;;;;2588442;55;1601;-91
2021/09/08 21:05:36;116900.00;0.39;202.73;0.00;0.00;0.62;;;;;22.80;1.00;;;;;;2588369;55;1953;-91
2021/09/08 21:08:04;135245.00;0.45;234.37;0.00;0.00;0.62;;;;;22.90;1.00;;;;;;2588388;55;1752;-91
2021/09/08 21:10:33;80800.00;0.27;140.42;0.00;0.00;0.62;;;;;23.00;1.00;;;;;;2588465;55;1340;-91
2021/09/08 21:13:00;327737.00;1.09;565.60;0.00;0.00;0.62;;;;;23.40;1.00;;;;;;2588439;55;978;-91
2021/09/08 21:15:27;207117.00;0.69;358.17;0.00;0.00;0.62;;;;;23.30;1.00;;;;;;2588313;55;1655;-92
2021/09/08 21:17:54;204017.00;0.68;352.84;0.00;0.00;0.62;;;;;23.20;1.00;;;;;;2586296;55;1105;-90
2021/09/08 21:20:21;226009.00;0.75;390.68;0.00;0.00;0.62;;;;;23.20;1.00;;;;;;2586271;55;1348;-91
2021/09/08 21:22:51;229211.00;0.76;396.19;0.00;0.00;0.62;;;;;23.30;1.00;;;;;;2586268;55;1105;-91
2021/09/08 21:25:18;113926.00;0.38;197.60;6891.00;0.02;12.56;;;;;23.10;1.00;;;;;;2588449;55;1952;-91
2021/09/08 21:27:48;41765.00;0.14;72.94;0.00;0.00;0.62;;;;;23.20;1.00;;;;;;2586350;55;943;-91
2021/09/08 21:30:16;198359.00;0.66;343.10;0.00;0.00;0.62;;;;;23.10;1.00;;;;;;2588489;55;1369;-93
2021/09/08 21:32:44;170486.00;0.57;295.10;0.00;0.00;0.62;;;;;23.10;1.00;;;;;;2588513;55;1698;-91
2021/09/08 21:35:12;277534.00;0.93;479.30;0.00;0.00;0.62;;;;;23.30;1.00;;;;;;2588542;55;1223;-91
2021/09/08 21:37:38;69423.00;0.23;120.76;0.00;0.00;0.62;;;;;23.30;1.00;;;;;;2588457;55;1722;-92
2021/09/08 21:40:07;270434.00;0.90;467.09;0.00;0.00;0.62;;;;;23.10;1.00;;;;;;2586259;55;1365;-90
2021/09/08 21:42:34;282246.00;0.94;487.40;0.00;0.00;0.62;;;;;23.00;1.00;;;;;;2588404;55;944;-91
2021/09/08 21:45:04;206247.00;0.69;356.68;0.00;0.00;0.62;;;;;23.20;1.00;;;;;;2586306;55;1059;-91
2021/09/08 21:47:31;269785.00;0.90;465.97;0.00;0.00;0.62;;;;;23.20;1.00;;;;;;2588437;55;1964;-91
2021/09/08 21:49:58;261316.00;0.87;451.41;0.00;0.00;0.62;;;;;23.30;1.00;;;;;;2588397;55;1659;-92
2021/09/08 21:52:25;138318.00;0.46;239.67;0.00;0.00;0.62;;;;;23.20;1.00;;;;;;2588652;55;969;-90
2021/09/08 21:54:52;154283.00;0.51;267.19;0.00;0.00;0.62;;;;;23.30;1.00;;;;;;2588693;55;992;-92
2021/09/08 21:57:19;95980.00;0.32;166.63;0.00;0.00;0.62;;;;;23.40;1.00;;;;;;2588708;55;975;-92
2021/09/08 21:59:46;186936.00;0.62;323.43;0.00;0.00;0.62;;;;;23.30;1.00;;;;;;2586544;55;1264;-91
2021/09/08 22:02:14;257196.00;0.86;444.33;0.00;0.00;0.62;;;;;23.40;1.00;;;;;;2588693;55;1097;-91
2021/09/08 22:04:41;222047.00;0.74;383.87;36731.00;0.12;64.23;;;;;23.50;1.00;;;;;;2586513;55;1117;-91
2021/09/08 22:07:08;169039.00;0.56;292.61;0.00;0.00;0.62;;;;;23.20;1.00;;;;;;2588690;55;1956;-92
2021/09/08 22:09:35;216863.00;0.72;374.95;0.00;0.00;0.62;;;;;23.30;1.00;;;;;;2588650;55;1718;-92
2021/09/08 22:12:02;196797.00;0.66;340.41;0.00;0.00;0.62;;;;;23.30;1.00;;;;;;2588553;55;1699;-91
2021/09/08 22:14:29;85777.00;0.29;149.02;0.00;0.00;0.62;;;;;23.20;1.00;;;;;;2588701;55;997;-92
2021/09/08 22:16:57;142455.00;0.47;246.80;0.00;0.00;0.62;;;;;23.10;1.00;;;;;;2588577;55;1666;-91
2021/09/08 22:19:26;135684.00;0.45;235.13;0.00;0.00;0.62;;;;;23.20;1.00;;;;;;2588670;55;1255;-91
2021/09/08 22:21:53;222124.00;0.74;384.00;0.00;0.00;0.62;;;;;23.10;1.00;;;;;;2588712;55;988;-93
2021/09/08 22:24:20;266407.00;0.89;460.17;0.00;0.00;0.62;;;;;23.10;1.00;;;;;;2588703;55;1073;-90
2021/09/08 22:26:47;495045.00;1.65;853.29;104696.00;0.35;181.68;;;;;22.90;1.00;;;;;;2586386;55;1896;-92
2021/09/08 22:29:14;240550.00;0.80;415.70;0.00;0.00;0.62;;;;;23.00;1.00;;;;;;2586409;55;1329;-90
2021/09/08 22:31:41;281128.00;0.94;485.48;0.00;0.00;0.62;;;;;23.10;1.00;;;;;;2586479;55;1133;-91
2021/09/08 22:34:08;269688.00;0.90;465.81;0.00;0.00;0.62;;;;;23.30;1.00;;;;;;2588595;55;1141;-92
2021/09/08 22:36:36;119267.00;0.40;206.82;0.00;0.00;0.62;;;;;23.40;1.00;;;;;;2586496;55;1023;-91
2021/09/08 22:39:04;106067.00;0.35;184.04;0.00;0.00;0.62;;;;;23.30;1.00;;;;;;2588608;55;1666;-91
2021/09/08 22:41:31;71614.00;0.24;124.55;0.00;0.00;0.62;;;;;23.10;1.00;;;;;;2586457;55;1218;-92
2021/09/08 22:43:58;198575.00;0.66;343.47;0.00;0.00;0.62;;;;;23.10;1.00;;;;;;2588628;55;1013;-90
2021/09/08 22:46:26;96517.00;0.32;167.56;0.00;0.00;0.62;;;;;23.00;1.00;;;;;;2586050;55;1976;-92
2021/09/08 22:48:53;130219.00;0.43;225.71;0.00;0.00;0.62;;;;;23.10;1.00;;;;;;2586409;55;1001;-91
2021/09/08 22:51:20;438354.00;1.46;755.75;60821.00;0.20;105.90;;;;;23.30;1.00;;;;;;2588622;55;1237;-91
2021/09/08 22:53:48;376022.00;1.25;648.59;73730.00;0.25;128.21;;;;;23.10;1.00;;;;;;2588517;55;1713;-91
2021/09/08 22:56:15;306834.00;1.02;529.67;0.00;0.00;0.62;;;;;22.90;1.00;;;;;;2588608;55;1003;-93
2021/09/08 22:58:45;80672.00;0.27;140.20;0.00;0.00;0.62;;;;;22.60;1.00;;;;;;2588683;55;973;-91
2021/09/08 23:01:13;351522.00;1.17;606.48;0.00;0.00;0.62;;;;;22.70;1.00;;;;;;2586314;55;1340;-91
2021/09/08 23:03:39;426296.00;1.42;735.02;71238.00;0.24;123.90;;;;;22.40;1.00;;;;;;2588666;55;1098;-93
2021/09/08 23:06:06;144648.00;0.48;250.58;0.00;0.00;0.62;;;;;22.20;1.00;;;;;;2588596;55;1959;-92
2021/09/08 23:08:33;365379.00;1.22;630.29;43925.00;0.15;76.68;;;;;22.00;1.00;;;;;;2588627;55;1006;-91
2021/09/08 23:11:02;211038.00;0.70;364.92;0.00;0.00;0.62;;;;;21.80;1.00;;;;;;2586318;55;1324;-91
2021/09/08 23:13:29;354468.00;1.18;611.54;0.00;0.00;0.62;;;;;21.90;1.00;;;;;;2588484;55;1726;-91
2021/09/08 23:15:56;164620.00;0.55;285.00;0.00;0.00;0.62;;;;;22.00;1.00;;;;;;2588598;55;1654;-91
2021/09/08 23:18:26;158800.00;0.53;274.97;0.00;0.00;0.62;;;;;22.10;1.00;;;;;;2588484;55;1626;-91
2021/09/08 23:20:53;367418.00;1.22;633.80;71014.00;0.24;123.51;;;;;22.20;1.00;;;;;;2586337;55;1323;-91
2021/09/08 23:23:20;394449.00;1.31;680.26;53778.00;0.18;93.72;;;;;21.90;1.00;;;;;;2588619;55;949;-91
2021/09/08 23:25:47;137930.00;0.46;239.00;0.00;0.00;0.62;;;;;22.10;1.00;;;;;;2588291;55;1963;-90
2021/09/08 23:28:15;143724.00;0.48;248.99;0.00;0.00;0.62;;;;;22.30;1.00;;;;;;2588607;55;961;-92
2021/09/08 23:30:42;337209.00;1.12;581.88;74138.00;0.25;128.91;;;;;22.40;1.00;;;;;;2586389;55;1290;-92
2021/09/08 23:33:09;216556.00;0.72;374.42;0.00;0.00;0.62;;;;;22.30;1.00;;;;;;2588524;55;957;-92
2021/09/08 23:35:37;125618.00;0.42;217.77;0.00;0.00;0.62;;;;;22.10;1.00;;;;;;2588630;55;976;-92
2021/09/08 23:38:04;423021.00;1.41;729.38;43170.00;0.14;75.37;;;;;22.00;1.00;;;;;;2588579;55;1508;-92
2021/09/08 23:40:31;273474.00;0.91;472.32;0.00;0.00;0.62;;;;;21.60;1.00;;;;;;2588663;55;1331;-92
2021/09/08 23:42:58;301489.00;1.00;520.48;1311.00;0.00;2.89;;;;;21.80;1.00;;;;;;2588525;55;1420;-92
2021/09/08 23:45:27;172647.00;0.58;298.83;0.00;0.00;0.62;;;;;22.00;1.00;;;;;;2587934;55;1569;-91
2021/09/08 23:47:54;594788.00;1.98;1025.22;74362.00;0.25;129.30;;;;;21.80;1.00;;;;;;2588504;55;1911;-90
2021/09/08 23:50:21;168354.00;0.56;291.43;0.00;0.00;0.62;;;;;21.50;1.00;;;;;;2588439;55;1505;-91
2021/09/08 23:52:48;274767.00;0.92;474.54;0.00;0.00;0.62;;;;;21.30;1.00;;;;;;2588482;55;1554;-90
2021/09/08 23:55:15;405456.00;1.35;699.18;0.00;0.00;0.62;;;;;21.30;1.00;;;;;;2586394;55;1069;-92
2021/09/08 23:57:42;290747.00;0.97;502.01;62853.00;0.21;109.41;;;;;21.10;1.00;;;;;;2588501;55;1749;-90
